createdAt,value
2019-05-13T00:01:54.053Z,11.30
2019-05-13T00:04:24.213Z,11.20
2019-05-13T00:06:55.163Z,11.20
2019-05-13T00:09:24.479Z,11.20
2019-05-13T00:11:55.145Z,11.10
2019-05-13T00:14:24.205Z,11.10
2019-05-13T00:16:53.810Z,11.00
2019-05-13T00:19:23.419Z,11.00
2019-05-13T00:21:54.465Z,11.00
2019-05-13T00:24:24.299Z,10.90
2019-05-13T00:26:53.460Z,10.90
2019-05-13T00:29:23.436Z,10.90
2019-05-13T00:31:54.023Z,10.80
2019-05-13T00:34:24.362Z,10.80
2019-05-13T00:37:07.362Z,10.80
2019-05-13T00:39:24.687Z,10.80
2019-05-13T00:41:53.781Z,10.80
2019-05-13T00:44:24.443Z,10.70
2019-05-13T00:46:53.884Z,10.70
2019-05-13T00:49:23.872Z,10.70
2019-05-13T00:51:53.446Z,10.70
2019-05-13T00:54:23.672Z,10.60
2019-05-13T00:56:54.775Z,10.60
2019-05-13T00:59:44.325Z,10.60
2019-05-13T01:02:13.940Z,10.50
2019-05-13T01:04:44.217Z,10.50
2019-05-13T01:07:25.289Z,10.40
2019-05-13T01:09:44.378Z,10.40
2019-05-13T01:12:13.464Z,10.40
2019-05-13T01:14:43.237Z,10.40
2019-05-13T01:17:14.173Z,10.30
2019-05-13T01:19:43.387Z,10.30
2019-05-13T01:22:13.478Z,10.20
2019-05-13T01:24:44.187Z,10.20
2019-05-13T01:27:13.941Z,10.20
2019-05-13T01:29:43.602Z,10.20
2019-05-13T01:32:14.467Z,10.10
2019-05-13T01:34:44.321Z,10.10
2019-05-13T01:37:13.407Z,10.10
2019-05-13T01:39:43.736Z,10.10
2019-05-13T01:42:13.751Z,10.10
2019-05-13T01:44:43.796Z,10.00
2019-05-13T01:47:13.426Z,10.00
2019-05-13T01:49:44.021Z,10.00
2019-05-13T01:52:13.715Z,10.00
2019-05-13T01:54:44.208Z,9.90
2019-05-13T01:57:14.538Z,9.90
2019-05-13T01:59:43.668Z,9.90
2019-05-13T02:02:13.793Z,9.80
2019-05-13T02:04:43.870Z,9.80
2019-05-13T02:07:14.385Z,9.80
2019-05-13T02:09:44.290Z,9.80
2019-05-13T02:12:13.548Z,9.70
2019-05-13T02:14:44.367Z,9.70
2019-05-13T02:17:14.617Z,9.60
2019-05-13T02:19:44.255Z,9.60
2019-05-13T02:22:14.576Z,9.60
2019-05-13T02:24:44.668Z,9.60
2019-05-13T02:27:14.258Z,9.60
2019-05-13T02:29:43.700Z,9.50
2019-05-13T02:32:13.807Z,9.50
2019-05-13T02:35:02.927Z,9.50
2019-05-13T02:37:34.223Z,9.50
2019-05-13T02:40:03.783Z,9.40
2019-05-13T02:42:33.115Z,9.40
2019-05-13T02:45:03.717Z,9.40
2019-05-13T02:47:33.194Z,9.30
2019-05-13T02:50:05.098Z,9.30
2019-05-13T02:52:33.612Z,9.30
2019-05-13T02:55:03.954Z,9.30
2019-05-13T02:57:33.244Z,9.30
2019-05-13T03:00:04.165Z,9.20
2019-05-13T03:02:33.002Z,9.20
2019-05-13T03:05:03.281Z,9.20
2019-05-13T03:07:33.380Z,9.20
2019-05-13T03:10:04.104Z,9.10
2019-05-13T03:12:33.555Z,9.10
2019-05-13T03:15:03.100Z,9.10
2019-05-13T03:17:38.248Z,9.10
2019-05-13T03:20:11.936Z,9.00
2019-05-13T03:22:38.102Z,9.00
2019-05-13T03:25:07.166Z,8.90
2019-05-13T03:27:36.186Z,9.00
2019-05-13T03:30:05.315Z,8.90
2019-05-13T03:32:42.141Z,8.90
2019-05-13T03:35:08.072Z,8.80
2019-05-13T03:37:36.498Z,8.80
2019-05-13T03:40:05.577Z,8.80
2019-05-13T03:42:34.601Z,8.80
2019-05-13T03:45:03.792Z,8.80
2019-05-13T03:47:33.090Z,8.70
2019-05-13T03:50:03.557Z,8.70
2019-05-13T03:52:33.863Z,8.70
2019-05-13T03:55:03.389Z,8.60
2019-05-13T03:57:33.702Z,8.60
2019-05-13T04:00:03.807Z,8.60
2019-05-13T04:02:32.893Z,8.60
2019-05-13T04:05:04.043Z,8.50
2019-05-13T04:07:32.769Z,8.50
2019-05-13T04:10:03.441Z,8.50
2019-05-13T04:12:33.300Z,8.50
2019-05-13T04:15:23.559Z,8.50
2019-05-13T04:17:53.307Z,8.40
2019-05-13T04:20:23.522Z,8.40
2019-05-13T04:22:53.275Z,8.40
2019-05-13T04:25:23.387Z,8.40
2019-05-13T04:27:52.602Z,8.40
2019-05-13T04:30:22.620Z,8.40
2019-05-13T04:32:53.546Z,8.40
2019-05-13T04:35:23.732Z,8.40
2019-05-13T04:37:53.144Z,8.40
2019-05-13T04:40:23.435Z,8.40
2019-05-13T04:42:53.842Z,8.30
2019-05-13T04:45:24.229Z,8.30
2019-05-13T04:47:53.418Z,8.30
2019-05-13T04:50:23.029Z,8.30
2019-05-13T04:52:52.692Z,8.30
2019-05-13T04:55:23.205Z,8.30
2019-05-13T04:57:53.473Z,8.30
2019-05-13T05:01:09.157Z,8.30
2019-05-13T05:03:48.048Z,8.30
2019-05-13T05:06:45.001Z,8.30
2019-05-13T05:10:21.320Z,8.30
2019-05-13T05:13:17.309Z,8.30
2019-05-13T05:16:32.685Z,8.30
2019-05-13T05:19:46.684Z,8.40
2019-05-13T05:22:51.339Z,8.40
2019-05-13T05:25:52.179Z,8.40
2019-05-13T05:29:14.755Z,8.50
2019-05-13T05:32:01.340Z,8.50
2019-05-13T05:35:05.938Z,8.60
2019-05-13T05:38:17.107Z,8.60
2019-05-13T05:40:47.268Z,8.70
2019-05-13T05:43:16.327Z,8.80
2019-05-13T05:45:45.357Z,8.80
2019-05-13T05:48:17.015Z,8.90
2019-05-13T05:50:46.907Z,9.00
2019-05-13T05:53:15.969Z,9.00
2019-05-13T05:55:45.052Z,9.10
2019-05-13T05:58:14.082Z,9.20
2019-05-13T06:00:43.187Z,9.30
2019-05-13T06:03:13.863Z,9.40
2019-05-13T06:05:43.137Z,9.50
2019-05-13T06:08:12.192Z,9.50
2019-05-13T06:10:49.103Z,9.60
2019-05-13T06:13:12.406Z,9.70
2019-05-13T06:15:42.087Z,9.80
2019-05-13T06:18:11.768Z,9.90
2019-05-13T06:20:41.845Z,10.00
2019-05-13T06:23:11.572Z,10.10
2019-05-13T06:25:42.754Z,10.20
2019-05-13T06:28:12.383Z,10.30
2019-05-13T06:30:41.700Z,10.40
2019-05-13T06:33:12.025Z,10.60
2019-05-13T06:35:44.802Z,10.60
2019-05-13T06:38:13.258Z,10.80
2019-05-13T06:40:42.550Z,10.80
2019-05-13T06:43:12.153Z,11.00
2019-05-13T06:45:42.064Z,11.10
2019-05-13T06:48:11.837Z,11.20
2019-05-13T06:50:41.626Z,11.30
2019-05-13T06:53:12.746Z,11.50
2019-05-13T06:55:41.933Z,11.60
2019-05-13T06:58:11.506Z,11.70
2019-05-13T07:00:42.711Z,11.80
2019-05-13T07:03:12.559Z,11.90
2019-05-13T07:05:42.441Z,12.10
2019-05-13T07:08:12.105Z,12.20
2019-05-13T07:10:41.602Z,12.30
2019-05-13T07:13:11.504Z,12.50
2019-05-13T07:15:41.608Z,12.60
2019-05-13T07:18:11.761Z,12.80
2019-05-13T07:20:42.640Z,12.90
2019-05-13T07:23:12.256Z,13.10
2019-05-13T07:25:42.945Z,13.30
2019-05-13T07:28:12.679Z,13.40
2019-05-13T07:30:43.103Z,13.60
2019-05-13T07:33:12.791Z,13.80
2019-05-13T07:35:44.841Z,13.90
2019-05-13T07:38:14.026Z,14.10
2019-05-13T07:40:42.987Z,14.40
2019-05-13T07:43:12.553Z,14.60
2019-05-13T07:45:42.328Z,14.80
2019-05-13T07:48:20.761Z,15.00
2019-05-13T07:50:53.338Z,15.20
2019-05-13T07:53:18.801Z,15.30
2019-05-13T07:55:43.794Z,15.40
2019-05-13T07:58:12.818Z,15.60
2019-05-13T08:00:42.122Z,16.00
2019-05-13T08:03:12.354Z,16.50
2019-05-13T08:05:42.000Z,17.10
2019-05-13T08:08:11.791Z,17.80
2019-05-13T08:10:41.490Z,18.30
2019-05-13T08:13:11.949Z,18.50
2019-05-13T08:15:44.327Z,18.40
2019-05-13T08:18:13.478Z,18.30
2019-05-13T08:20:42.565Z,18.10
2019-05-13T08:23:12.214Z,19.40
2019-05-13T08:25:42.311Z,21.10
2019-05-13T08:28:12.456Z,22.60
2019-05-13T08:30:42.915Z,23.90
2019-05-13T08:33:12.728Z,25.10
2019-05-13T08:35:46.730Z,26.20
2019-05-13T08:38:12.725Z,26.90
2019-05-13T08:40:42.517Z,27.30
2019-05-13T08:43:12.211Z,28.20
2019-05-13T08:45:42.108Z,28.90
2019-05-13T08:48:12.672Z,29.50
2019-05-13T08:50:42.405Z,30.00
2019-05-13T08:53:12.266Z,30.40
2019-05-13T08:55:42.641Z,30.80
2019-05-13T08:58:12.701Z,31.00
2019-05-13T09:00:53.130Z,31.20
2019-05-13T09:03:23.353Z,31.20
2019-05-13T09:05:53.727Z,31.30
2019-05-13T09:08:23.112Z,31.30
2019-05-13T09:10:56.316Z,31.20
2019-05-13T09:13:23.275Z,31.10
2019-05-13T09:15:52.237Z,30.90
2019-05-13T09:18:22.763Z,30.80
2019-05-13T09:20:52.301Z,30.70
2019-05-13T09:23:22.231Z,30.50
2019-05-13T09:25:52.312Z,30.40
2019-05-13T09:28:22.190Z,30.20
2019-05-13T09:33:22.186Z,29.90
2019-05-13T09:35:53.572Z,29.60
2019-05-13T09:38:22.312Z,29.50
2019-05-13T09:40:52.960Z,29.20
2019-05-13T09:43:22.471Z,29.00
2019-05-13T09:45:52.237Z,28.60
2019-05-13T09:48:22.523Z,28.30
2019-05-13T09:50:52.023Z,28.00
2019-05-13T09:53:22.311Z,27.60
2019-05-13T09:55:52.376Z,27.30
2019-05-13T09:58:22.319Z,27.00
2019-05-13T10:00:52.832Z,26.80
2019-05-13T10:03:28.896Z,26.60
2019-05-13T10:05:52.843Z,26.40
2019-05-13T10:08:22.184Z,26.20
2019-05-13T10:10:52.740Z,26.10
2019-05-13T10:13:23.171Z,25.90
2019-05-13T10:15:52.626Z,25.80
2019-05-13T10:18:22.258Z,25.70
2019-05-13T10:20:58.684Z,25.60
2019-05-13T10:23:50.754Z,25.50
2019-05-13T10:26:22.007Z,25.40
2019-05-13T10:28:50.593Z,25.30
2019-05-13T10:31:58.440Z,25.20
2019-05-13T10:34:27.386Z,25.20
2019-05-13T10:36:56.433Z,25.10
2019-05-13T10:42:03.583Z,25.00
2019-05-13T10:44:31.990Z,25.00
2019-05-13T10:49:32.752Z,24.90
2019-05-13T10:57:48.094Z,24.80
2019-05-13T11:00:17.209Z,24.80
2019-05-13T11:02:46.264Z,24.80
2019-05-13T11:05:15.263Z,24.80
2019-05-13T11:07:44.294Z,24.80
2019-05-13T11:10:13.868Z,24.80
2019-05-13T11:12:42.946Z,24.90
2019-05-13T11:15:12.000Z,24.90
2019-05-13T11:17:42.715Z,24.90
2019-05-13T11:20:12.572Z,25.00
2019-05-13T11:22:43.549Z,25.00
2019-05-13T11:25:12.806Z,25.00
2019-05-13T11:27:42.272Z,25.00
2019-05-13T11:30:11.607Z,25.00
2019-05-13T11:32:42.726Z,25.00
2019-05-13T11:35:12.927Z,25.10
2019-05-13T11:37:43.500Z,25.00
2019-05-13T11:40:13.037Z,25.10
2019-05-13T11:42:42.314Z,25.10
2019-05-13T11:45:11.831Z,25.10
2019-05-13T11:47:41.568Z,25.20
2019-05-13T11:50:11.563Z,25.20
2019-05-13T11:52:42.631Z,25.20
2019-05-13T11:57:44.460Z,25.30
2019-05-13T12:00:13.699Z,25.30
2019-05-13T12:02:50.270Z,25.30
2019-05-13T12:05:13.582Z,25.20
2019-05-13T12:07:42.613Z,25.20
2019-05-13T12:10:12.505Z,25.30
2019-05-13T12:12:43.922Z,25.30
2019-05-13T12:15:44.538Z,25.30
2019-05-13T12:17:43.371Z,25.30
2019-05-13T12:20:13.189Z,25.30
2019-05-13T12:22:43.459Z,25.30
2019-05-13T12:25:13.853Z,25.30
2019-05-13T12:27:43.318Z,25.30
2019-05-13T12:30:12.660Z,25.30
2019-05-13T12:32:43.696Z,25.40
2019-05-13T12:35:13.427Z,25.40
2019-05-13T12:37:42.953Z,25.40
2019-05-13T12:40:12.014Z,25.50
2019-05-13T12:42:46.237Z,25.50
2019-05-13T12:45:14.377Z,25.50
2019-05-13T12:47:43.338Z,25.40
2019-05-13T12:50:13.541Z,25.50
2019-05-13T12:52:44.098Z,25.50
2019-05-13T12:55:14.052Z,25.50
2019-05-13T12:57:43.415Z,25.50
2019-05-13T13:00:13.427Z,25.50
2019-05-13T13:02:49.967Z,25.50
2019-05-13T13:05:19.949Z,25.50
2019-05-13T13:07:43.972Z,25.40
2019-05-13T13:10:14.725Z,25.30
2019-05-13T13:12:45.378Z,25.30
2019-05-13T13:17:45.251Z,25.40
2019-05-13T13:20:15.416Z,25.30
2019-05-13T13:22:44.858Z,25.30
2019-05-13T13:25:13.917Z,25.30
2019-05-13T13:28:09.819Z,25.30
2019-05-13T13:30:13.734Z,25.30
2019-05-13T13:32:45.223Z,25.40
2019-05-13T13:35:14.850Z,25.40
2019-05-13T13:37:46.011Z,25.40
2019-05-13T13:40:23.134Z,25.50
2019-05-13T13:42:45.626Z,25.50
2019-05-13T13:45:15.083Z,25.50
2019-05-13T13:48:02.430Z,25.40
2019-05-13T13:50:24.631Z,25.30
2019-05-13T13:52:52.941Z,25.30
2019-05-13T13:55:25.786Z,25.40
2019-05-13T13:57:56.684Z,25.40
2019-05-13T14:00:38.191Z,25.40
2019-05-13T14:02:54.827Z,25.30
2019-05-13T14:05:24.985Z,25.30
2019-05-13T14:06:30.769Z,25.20
2019-05-13T14:06:50.059Z,25.40
2019-05-13T14:07:03.257Z,30.00
2019-05-13T14:07:54.218Z,25.20
2019-05-13T14:10:23.317Z,25.10
2019-05-13T14:12:52.634Z,25.20
2019-05-13T14:15:21.720Z,25.10
2019-05-13T14:17:51.666Z,25.10
2019-05-13T14:20:21.969Z,25.10
2019-05-13T14:22:57.279Z,25.00
2019-05-13T14:25:22.450Z,24.90
2019-05-13T14:27:52.673Z,24.90
2019-05-13T14:30:21.901Z,25.00
2019-05-13T14:32:53.594Z,24.90
2019-05-13T14:35:25.172Z,24.90
2019-05-13T14:37:54.245Z,25.00
2019-05-13T14:40:26.161Z,25.00
2019-05-13T14:42:56.456Z,25.00
2019-05-13T14:45:26.426Z,25.00
2019-05-13T14:47:55.486Z,24.90
2019-05-13T14:50:24.618Z,25.00
2019-05-13T14:52:53.799Z,25.00
2019-05-13T14:55:22.906Z,25.00
2019-05-13T14:57:52.589Z,25.00
2019-05-13T15:00:22.230Z,24.90
2019-05-13T15:02:51.911Z,24.80
2019-05-13T15:05:22.005Z,24.80
2019-05-13T15:07:52.827Z,24.70
2019-05-13T15:10:22.000Z,24.60
2019-05-13T15:12:52.355Z,24.50
2019-05-13T15:15:22.393Z,24.40
2019-05-13T15:17:52.014Z,24.40
2019-05-13T15:20:21.778Z,24.50
2019-05-13T15:22:51.856Z,24.40
2019-05-13T15:25:22.040Z,24.40
2019-05-13T15:27:52.758Z,24.40
2019-05-13T15:30:22.174Z,24.30
2019-05-13T15:32:52.529Z,24.40
2019-05-13T15:35:21.832Z,24.40
2019-05-13T15:37:52.276Z,24.40
2019-05-13T15:40:22.030Z,24.30
2019-05-13T15:42:51.777Z,24.30
2019-05-13T15:45:21.422Z,24.20
2019-05-13T15:47:51.586Z,24.20
2019-05-13T15:50:21.460Z,24.20
2019-05-13T15:52:50.663Z,24.30
2019-05-13T15:55:21.388Z,24.30
2019-05-13T15:57:51.792Z,24.40
2019-05-13T16:00:21.926Z,24.40
2019-05-13T16:02:52.244Z,24.40
2019-05-13T16:05:25.368Z,24.30
2019-05-13T16:08:02.777Z,24.50
2019-05-13T16:10:31.724Z,24.70
2019-05-13T16:13:02.291Z,24.80
2019-05-13T16:15:32.090Z,24.90
2019-05-13T16:18:02.523Z,25.00
2019-05-13T16:20:32.203Z,25.00
2019-05-13T16:23:02.392Z,25.00
2019-05-13T16:25:32.142Z,25.00
2019-05-13T16:28:01.449Z,24.80
2019-05-13T16:30:32.167Z,24.70
2019-05-13T16:33:02.885Z,24.70
2019-05-13T16:35:32.256Z,24.60
2019-05-13T16:38:01.848Z,24.50
2019-05-13T16:40:36.349Z,24.40
2019-05-13T16:43:01.889Z,24.30
2019-05-13T16:45:31.531Z,24.20
2019-05-13T16:48:03.820Z,24.00
2019-05-13T16:50:31.511Z,23.90
2019-05-13T16:53:01.891Z,23.80
2019-05-13T16:55:32.733Z,23.70
2019-05-13T16:58:02.113Z,23.70
2019-05-13T17:00:31.723Z,23.60
2019-05-13T17:03:02.303Z,23.60
2019-05-13T17:05:32.749Z,23.60
2019-05-13T17:08:02.213Z,23.40
2019-05-13T17:10:31.690Z,23.30
2019-05-13T17:13:02.990Z,23.20
2019-05-13T17:15:31.631Z,23.00
2019-05-13T17:18:09.149Z,23.00
2019-05-13T17:20:32.130Z,22.90
2019-05-13T17:23:01.925Z,22.90
2019-05-13T17:25:31.130Z,22.80
2019-05-13T17:28:02.836Z,22.70
2019-05-13T17:30:31.983Z,22.70
2019-05-13T17:33:02.232Z,22.60
2019-05-13T17:35:31.400Z,22.50
2019-05-13T17:38:01.880Z,22.40
2019-05-13T17:40:31.537Z,22.30
2019-05-13T17:43:00.523Z,22.20
2019-05-13T17:45:31.303Z,22.00
2019-05-13T17:48:01.124Z,21.90
2019-05-13T17:50:31.509Z,21.80
2019-05-13T17:53:02.216Z,21.70
2019-05-13T17:55:31.265Z,21.60
2019-05-13T17:58:01.451Z,21.50
2019-05-13T18:00:32.294Z,21.40
2019-05-13T18:03:01.879Z,21.30
2019-05-13T18:05:31.491Z,21.20
2019-05-13T18:08:01.878Z,21.10
2019-05-13T18:10:31.775Z,20.90
2019-05-13T18:13:01.741Z,20.80
2019-05-13T18:15:31.367Z,20.70
2019-05-13T18:18:01.436Z,20.60
2019-05-13T18:20:32.148Z,20.50
2019-05-13T18:23:01.745Z,20.50
2019-05-13T18:25:31.780Z,20.30
2019-05-13T18:28:02.154Z,20.20
2019-05-13T18:30:31.746Z,20.10
2019-05-13T18:33:01.358Z,20.00
2019-05-13T18:35:31.482Z,19.80
2019-05-13T18:38:01.383Z,19.70
2019-05-13T18:40:31.520Z,19.60
2019-05-13T18:43:01.937Z,19.50
2019-05-13T18:45:31.036Z,19.30
2019-05-13T18:48:01.704Z,19.30
2019-05-13T18:50:42.581Z,19.20
2019-05-13T18:53:11.655Z,19.10
2019-05-13T18:55:41.626Z,19.00
2019-05-13T18:58:11.730Z,18.90
2019-05-13T19:00:41.653Z,18.70
2019-05-13T19:03:12.416Z,18.70
2019-05-13T19:05:42.217Z,18.50
2019-05-13T19:08:12.351Z,18.50
2019-05-13T19:10:42.318Z,18.40
2019-05-13T19:13:12.376Z,18.30
2019-05-13T19:15:41.598Z,18.20
2019-05-13T19:18:12.215Z,18.10
2019-05-13T19:20:41.934Z,18.00
2019-05-13T19:23:11.818Z,17.90
2019-05-13T19:25:42.693Z,17.80
2019-05-13T19:28:12.042Z,17.80
2019-05-13T19:30:41.318Z,17.70
2019-05-13T19:33:12.112Z,17.70
2019-05-13T19:35:42.588Z,17.60
2019-05-13T19:38:12.214Z,17.50
2019-05-13T19:40:41.983Z,17.40
2019-05-13T19:43:11.734Z,17.30
2019-05-13T19:45:41.646Z,17.20
2019-05-13T19:48:13.701Z,17.10
2019-05-13T19:50:42.783Z,17.00
2019-05-13T19:53:12.217Z,16.90
2019-05-13T19:55:41.634Z,16.80
2019-05-13T19:58:12.389Z,16.80
2019-05-13T20:00:42.427Z,16.60
2019-05-13T20:03:12.013Z,16.60
2019-05-13T20:05:41.652Z,16.50
2019-05-13T20:08:11.089Z,16.50
2019-05-13T20:10:42.275Z,16.40
2019-05-13T20:13:11.265Z,16.40
2019-05-13T20:15:41.285Z,16.30
2019-05-13T20:18:12.480Z,16.30
2019-05-13T20:20:41.527Z,16.20
2019-05-13T20:23:12.051Z,16.10
2019-05-13T20:25:41.769Z,16.10
2019-05-13T20:28:11.568Z,16.00
2019-05-13T20:30:41.844Z,15.90
2019-05-13T20:33:12.022Z,15.90
2019-05-13T20:35:42.020Z,15.90
2019-05-13T20:38:11.654Z,15.80
2019-05-13T20:40:41.353Z,15.70
2019-05-13T20:43:13.723Z,15.70
2019-05-13T20:45:42.819Z,15.60
2019-05-13T20:48:12.108Z,15.60
2019-05-13T20:50:41.405Z,15.50
2019-05-13T20:53:13.368Z,15.40
2019-05-13T20:55:42.518Z,15.40
2019-05-13T20:58:12.780Z,15.30
2019-05-13T21:00:42.336Z,15.30
2019-05-13T21:03:11.826Z,15.20
2019-05-13T21:05:41.707Z,15.20
2019-05-13T21:08:10.778Z,15.10
2019-05-13T21:10:41.997Z,15.10
2019-05-13T21:13:12.217Z,15.00
2019-05-13T21:15:42.568Z,15.00
2019-05-13T21:18:11.678Z,15.00
2019-05-13T21:20:41.064Z,14.90
2019-05-13T21:23:11.260Z,14.90
2019-05-13T21:25:41.884Z,14.80
2019-05-13T21:28:11.467Z,14.70
2019-05-13T21:30:42.036Z,14.70
2019-05-13T21:33:11.991Z,14.60
2019-05-13T21:35:52.909Z,14.60
2019-05-13T21:38:22.402Z,14.50
2019-05-13T21:40:52.245Z,14.50
2019-05-13T21:43:21.714Z,14.40
2019-05-13T21:45:52.358Z,14.30
2019-05-13T21:48:21.867Z,14.30
2019-05-13T21:50:51.602Z,14.20
2019-05-13T21:53:24.167Z,14.20
2019-05-13T21:55:52.121Z,14.10
2019-05-13T21:58:22.317Z,14.00
2019-05-13T22:00:52.112Z,14.00
2019-05-13T22:03:21.428Z,13.90
2019-05-13T22:05:51.480Z,13.90
2019-05-13T22:08:21.617Z,13.80
2019-05-13T22:10:52.515Z,13.80
2019-05-13T22:13:24.975Z,13.70
2019-05-13T22:15:54.049Z,13.70
2019-05-13T22:18:23.125Z,13.70
2019-05-13T22:20:53.689Z,13.60
2019-05-13T22:23:26.202Z,13.60
2019-05-13T22:25:55.253Z,13.60
2019-05-13T22:28:24.285Z,13.50
2019-05-13T22:30:53.371Z,13.50
2019-05-13T22:33:22.433Z,13.50
2019-05-13T22:35:52.307Z,13.40
2019-05-13T22:38:21.522Z,13.40
2019-05-13T22:40:52.110Z,13.30
2019-05-13T22:43:21.323Z,13.30
2019-05-13T22:45:51.123Z,13.20
2019-05-13T22:48:22.298Z,13.20
2019-05-13T22:50:52.158Z,13.10
2019-05-13T22:53:21.269Z,13.10
2019-05-13T22:55:52.084Z,13.00
2019-05-13T22:58:22.567Z,13.00
2019-05-13T23:00:51.880Z,13.00
2019-05-13T23:03:21.009Z,12.90
2019-05-13T23:05:52.060Z,12.90
2019-05-13T23:08:21.710Z,12.80
2019-05-13T23:10:51.527Z,12.80
2019-05-13T23:13:20.620Z,12.70
2019-05-13T23:15:51.503Z,12.70
2019-05-13T23:18:22.143Z,12.60
2019-05-13T23:20:51.605Z,12.60
2019-05-13T23:23:22.164Z,12.50
2019-05-13T23:25:51.434Z,12.50
2019-05-13T23:28:21.659Z,12.40
2019-05-13T23:30:51.234Z,12.40
2019-05-13T23:33:21.946Z,12.30
2019-05-13T23:35:51.059Z,12.30
2019-05-13T23:38:21.419Z,12.20
2019-05-13T23:40:51.631Z,12.20
2019-05-13T23:43:21.739Z,12.10
2019-05-13T23:45:51.253Z,12.10
2019-05-13T23:48:21.580Z,12.00
2019-05-13T23:50:52.039Z,12.00
2019-05-13T23:53:22.999Z,11.90
2019-05-13T23:55:52.275Z,11.90
2019-05-13T23:58:21.809Z,11.80
